Terminal Aerodrome Forecast
Issued by NWS

Home | Current Version | Previous Version | Graphics & Text | Print | Product List | Glossary On
Versions: 1 2 3 4 5 6 7 8 9 10 11 12 13 14 15 16 17 18 19 20 21 22 23 24 25 26 27 28 29 30 31 32 33 34 35 36 37 38 39 40 41 42
000
FTUS43 KLOT 131100 RRA
TAFORD
TAF
KORD 131141Z 1312/1418 22011KT P6SM SCT060 BKN250
     FM132000 11008KT P6SM VCSH BKN025
      TEMPO 1320/1323 04012KT 3SM -TSRA SCT007 OVC020CB
     FM132300 18010KT 3SM SHRA BR OVC009
      TEMPO 1323/1401 2SM -TSRA OVC009CB
     FM140100 23012G18KT 4SM SHRA VCTS OVC009CB
     FM140700 36018G30KT 4SM RA BR OVC009
     FM141500 35017G25KT P6SM OVC015 PROB30 1415/1418 6SM RA=

USA.gov is the U.S. government's official web portal to all federal, state and local government web resources and services.